sensor_id;sensor_type;location;lat;lon;timestamp;P1;durP1;ratioP1;P2;durP2;ratioP2
17648;SDS011;8943;51.110;-4.158;2022-07-17T00:01:09;4.00;;;2.60;;
17648;SDS011;8943;51.110;-4.158;2022-07-17T00:03:38;3.93;;;2.53;;
17648;SDS011;8943;51.110;-4.158;2022-07-17T00:06:06;4.10;;;2.57;;
17648;SDS011;8943;51.110;-4.158;2022-07-17T00:08:35;2.97;;;2.53;;
17648;SDS011;8943;51.110;-4.158;2022-07-17T00:11:05;2.90;;;2.37;;
17648;SDS011;8943;51.110;-4.158;2022-07-17T00:13:33;2.60;;;2.07;;
17648;SDS011;8943;51.110;-4.158;2022-07-17T00:16:02;3.73;;;2.60;;
17648;SDS011;8943;51.110;-4.158;2022-07-17T00:18:30;2.83;;;2.43;;
17648;SDS011;8943;51.110;-4.158;2022-07-17T00:20:58;2.97;;;2.50;;
17648;SDS011;8943;51.110;-4.158;2022-07-17T00:23:27;3.13;;;2.00;;
17648;SDS011;8943;51.110;-4.158;2022-07-17T00:25:55;4.80;;;2.40;;
17648;SDS011;8943;51.110;-4.158;2022-07-17T00:28:25;2.97;;;2.40;;
17648;SDS011;8943;51.110;-4.158;2022-07-17T00:30:53;3.23;;;2.20;;
17648;SDS011;8943;51.110;-4.158;2022-07-17T00:33:21;3.70;;;2.40;;
17648;SDS011;8943;51.110;-4.158;2022-07-17T00:35:49;3.10;;;2.37;;
17648;SDS011;8943;51.110;-4.158;2022-07-17T00:38:19;3.93;;;2.53;;
17648;SDS011;8943;51.110;-4.158;2022-07-17T00:40:47;3.23;;;2.40;;
17648;SDS011;8943;51.110;-4.158;2022-07-17T00:43:15;3.13;;;2.53;;
17648;SDS011;8943;51.110;-4.158;2022-07-17T00:45:45;3.00;;;2.70;;
17648;SDS011;8943;51.110;-4.158;2022-07-17T00:48:13;3.23;;;2.40;;
17648;SDS011;8943;51.110;-4.158;2022-07-17T00:50:41;5.10;;;2.63;;
17648;SDS011;8943;51.110;-4.158;2022-07-17T00:53:10;5.00;;;2.60;;
17648;SDS011;8943;51.110;-4.158;2022-07-17T00:55:39;4.93;;;2.50;;
17648;SDS011;8943;51.110;-4.158;2022-07-17T00:58:10;3.27;;;2.53;;
17648;SDS011;8943;51.110;-4.158;2022-07-17T01:00:45;3.93;;;2.23;;
17648;SDS011;8943;51.110;-4.158;2022-07-17T01:03:15;2.70;;;2.27;;
17648;SDS011;8943;51.110;-4.158;2022-07-17T01:05:45;5.03;;;2.23;;
17648;SDS011;8943;51.110;-4.158;2022-07-17T01:08:13;2.43;;;2.10;;
17648;SDS011;8943;51.110;-4.158;2022-07-17T01:10:42;4.30;;;2.33;;
17648;SDS011;8943;51.110;-4.158;2022-07-17T01:13:10;2.57;;;2.33;;
17648;SDS011;8943;51.110;-4.158;2022-07-17T01:15:39;3.03;;;2.20;;
17648;SDS011;8943;51.110;-4.158;2022-07-17T01:18:11;4.13;;;2.20;;
17648;SDS011;8943;51.110;-4.158;2022-07-17T01:20:41;4.03;;;2.47;;
17648;SDS011;8943;51.110;-4.158;2022-07-17T01:23:12;2.83;;;2.10;;
17648;SDS011;8943;51.110;-4.158;2022-07-17T01:25:41;4.37;;;2.57;;
17648;SDS011;8943;51.110;-4.158;2022-07-17T01:28:10;3.10;;;2.37;;
17648;SDS011;8943;51.110;-4.158;2022-07-17T01:30:44;4.23;;;2.30;;
17648;SDS011;8943;51.110;-4.158;2022-07-17T01:33:13;3.70;;;2.10;;
17648;SDS011;8943;51.110;-4.158;2022-07-17T01:35:42;2.63;;;2.40;;
17648;SDS011;8943;51.110;-4.158;2022-07-17T01:38:13;3.57;;;2.57;;
17648;SDS011;8943;51.110;-4.158;2022-07-17T01:40:41;3.87;;;2.63;;
17648;SDS011;8943;51.110;-4.158;2022-07-17T01:43:09;3.67;;;2.53;;
17648;SDS011;8943;51.110;-4.158;2022-07-17T01:45:38;4.93;;;2.70;;
17648;SDS011;8943;51.110;-4.158;2022-07-17T01:48:06;2.90;;;2.30;;
17648;SDS011;8943;51.110;-4.158;2022-07-17T01:50:34;3.03;;;2.73;;
17648;SDS011;8943;51.110;-4.158;2022-07-17T01:53:03;3.07;;;2.30;;
17648;SDS011;8943;51.110;-4.158;2022-07-17T01:55:32;3.10;;;2.80;;
17648;SDS011;8943;51.110;-4.158;2022-07-17T01:58:01;3.77;;;2.40;;
17648;SDS011;8943;51.110;-4.158;2022-07-17T02:00:29;3.70;;;2.40;;
17648;SDS011;8943;51.110;-4.158;2022-07-17T02:02:57;3.13;;;2.20;;
17648;SDS011;8943;51.110;-4.158;2022-07-17T02:05:25;2.80;;;2.30;;
17648;SDS011;8943;51.110;-4.158;2022-07-17T02:07:53;3.80;;;2.70;;
17648;SDS011;8943;51.110;-4.158;2022-07-17T02:10:21;4.83;;;2.60;;
17648;SDS011;8943;51.110;-4.158;2022-07-17T02:12:51;2.93;;;2.13;;
17648;SDS011;8943;51.110;-4.158;2022-07-17T02:15:19;3.47;;;2.50;;
17648;SDS011;8943;51.110;-4.158;2022-07-17T02:17:47;2.93;;;2.43;;
17648;SDS011;8943;51.110;-4.158;2022-07-17T02:20:16;2.73;;;2.40;;
17648;SDS011;8943;51.110;-4.158;2022-07-17T02:22:44;3.20;;;2.23;;
17648;SDS011;8943;51.110;-4.158;2022-07-17T02:25:13;4.20;;;2.33;;
17648;SDS011;8943;51.110;-4.158;2022-07-17T02:27:41;2.70;;;2.13;;
17648;SDS011;8943;51.110;-4.158;2022-07-17T02:30:13;2.37;;;2.10;;
17648;SDS011;8943;51.110;-4.158;2022-07-17T02:32:43;3.47;;;2.43;;
17648;SDS011;8943;51.110;-4.158;2022-07-17T02:35:12;2.57;;;2.10;;
17648;SDS011;8943;51.110;-4.158;2022-07-17T02:37:41;2.70;;;2.20;;
17648;SDS011;8943;51.110;-4.158;2022-07-17T02:40:10;2.10;;;1.90;;
17648;SDS011;8943;51.110;-4.158;2022-07-17T02:42:39;5.83;;;2.00;;
17648;SDS011;8943;51.110;-4.158;2022-07-17T02:45:08;3.00;;;2.23;;
17648;SDS011;8943;51.110;-4.158;2022-07-17T02:47:38;3.60;;;2.10;;
17648;SDS011;8943;51.110;-4.158;2022-07-17T02:50:07;2.93;;;2.07;;
17648;SDS011;8943;51.110;-4.158;2022-07-17T02:52:36;3.67;;;2.47;;
17648;SDS011;8943;51.110;-4.158;2022-07-17T02:55:05;2.50;;;2.00;;
17648;SDS011;8943;51.110;-4.158;2022-07-17T02:57:34;2.37;;;2.03;;
17648;SDS011;8943;51.110;-4.158;2022-07-17T03:00:03;2.30;;;2.10;;
17648;SDS011;8943;51.110;-4.158;2022-07-17T03:02:32;3.07;;;2.23;;
17648;SDS011;8943;51.110;-4.158;2022-07-17T03:05:01;2.67;;;2.00;;
17648;SDS011;8943;51.110;-4.158;2022-07-17T03:07:29;3.43;;;1.60;;
17648;SDS011;8943;51.110;-4.158;2022-07-17T03:09:58;3.33;;;2.20;;
17648;SDS011;8943;51.110;-4.158;2022-07-17T03:12:26;2.67;;;1.73;;
17648;SDS011;8943;51.110;-4.158;2022-07-17T03:14:54;2.13;;;1.83;;
17648;SDS011;8943;51.110;-4.158;2022-07-17T03:17:22;2.73;;;2.13;;
17648;SDS011;8943;51.110;-4.158;2022-07-17T03:19:51;3.63;;;1.70;;
17648;SDS011;8943;51.110;-4.158;2022-07-17T03:22:21;2.40;;;1.90;;
17648;SDS011;8943;51.110;-4.158;2022-07-17T03:24:49;2.80;;;1.97;;
17648;SDS011;8943;51.110;-4.158;2022-07-17T03:27:17;4.07;;;2.20;;
17648;SDS011;8943;51.110;-4.158;2022-07-17T03:29:46;2.17;;;1.73;;
17648;SDS011;8943;51.110;-4.158;2022-07-17T03:32:14;2.60;;;1.60;;
17648;SDS011;8943;51.110;-4.158;2022-07-17T03:34:43;2.03;;;1.77;;
17648;SDS011;8943;51.110;-4.158;2022-07-17T03:37:11;4.50;;;1.87;;
17648;SDS011;8943;51.110;-4.158;2022-07-17T03:39:41;2.03;;;1.53;;
17648;SDS011;8943;51.110;-4.158;2022-07-17T03:42:09;2.97;;;1.60;;
17648;SDS011;8943;51.110;-4.158;2022-07-17T03:44:37;2.27;;;1.60;;
17648;SDS011;8943;51.110;-4.158;2022-07-17T03:47:05;2.53;;;1.70;;
17648;SDS011;8943;51.110;-4.158;2022-07-17T03:49:33;1.57;;;1.47;;
17648;SDS011;8943;51.110;-4.158;2022-07-17T03:52:01;1.67;;;1.50;;
17648;SDS011;8943;51.110;-4.158;2022-07-17T03:54:30;3.27;;;1.70;;
17648;SDS011;8943;51.110;-4.158;2022-07-17T03:56:59;2.37;;;1.80;;
17648;SDS011;8943;51.110;-4.158;2022-07-17T03:59:28;2.80;;;1.60;;
17648;SDS011;8943;51.110;-4.158;2022-07-17T04:01:56;2.53;;;1.70;;
17648;SDS011;8943;51.110;-4.158;2022-07-17T04:04:24;2.30;;;1.70;;
17648;SDS011;8943;51.110;-4.158;2022-07-17T04:06:52;3.13;;;1.80;;
17648;SDS011;8943;51.110;-4.158;2022-07-17T04:09:20;3.83;;;1.57;;
17648;SDS011;8943;51.110;-4.158;2022-07-17T04:11:48;2.57;;;1.30;;
17648;SDS011;8943;51.110;-4.158;2022-07-17T04:14:18;1.83;;;1.60;;
17648;SDS011;8943;51.110;-4.158;2022-07-17T04:16:46;2.87;;;1.60;;
17648;SDS011;8943;51.110;-4.158;2022-07-17T04:19:14;2.60;;;1.90;;
17648;SDS011;8943;51.110;-4.158;2022-07-17T04:21:43;2.50;;;1.40;;
17648;SDS011;8943;51.110;-4.158;2022-07-17T04:24:11;6.67;;;1.63;;
17648;SDS011;8943;51.110;-4.158;2022-07-17T04:26:39;2.30;;;1.60;;
17648;SDS011;8943;51.110;-4.158;2022-07-17T04:29:08;2.60;;;1.53;;
17648;SDS011;8943;51.110;-4.158;2022-07-17T04:31:37;2.67;;;1.40;;
17648;SDS011;8943;51.110;-4.158;2022-07-17T04:34:05;2.10;;;1.53;;
17648;SDS011;8943;51.110;-4.158;2022-07-17T04:36:34;2.57;;;1.43;;
17648;SDS011;8943;51.110;-4.158;2022-07-17T04:39:02;4.33;;;1.40;;
17648;SDS011;8943;51.110;-4.158;2022-07-17T04:41:30;5.63;;;1.63;;
17648;SDS011;8943;51.110;-4.158;2022-07-17T04:43:58;3.10;;;1.50;;
17648;SDS011;8943;51.110;-4.158;2022-07-17T04:46:26;1.70;;;1.37;;
17648;SDS011;8943;51.110;-4.158;2022-07-17T04:48:56;2.60;;;1.60;;
17648;SDS011;8943;51.110;-4.158;2022-07-17T04:51:25;1.90;;;1.37;;
17648;SDS011;8943;51.110;-4.158;2022-07-17T04:53:54;3.23;;;1.60;;
17648;SDS011;8943;51.110;-4.158;2022-07-17T04:56:22;3.03;;;1.60;;
17648;SDS011;8943;51.110;-4.158;2022-07-17T04:58:51;1.97;;;1.60;;
17648;SDS011;8943;51.110;-4.158;2022-07-17T05:01:19;2.73;;;1.40;;
17648;SDS011;8943;51.110;-4.158;2022-07-17T05:03:47;2.20;;;1.40;;
17648;SDS011;8943;51.110;-4.158;2022-07-17T05:06:17;1.63;;;1.03;;
17648;SDS011;8943;51.110;-4.158;2022-07-17T05:08:45;2.57;;;1.77;;
17648;SDS011;8943;51.110;-4.158;2022-07-17T05:11:13;1.97;;;1.50;;
17648;SDS011;8943;51.110;-4.158;2022-07-17T05:13:41;2.23;;;1.10;;
17648;SDS011;8943;51.110;-4.158;2022-07-17T05:16:09;1.37;;;1.20;;
17648;SDS011;8943;51.110;-4.158;2022-07-17T05:18:38;1.80;;;1.30;;
17648;SDS011;8943;51.110;-4.158;2022-07-17T05:21:06;2.97;;;1.20;;
17648;SDS011;8943;51.110;-4.158;2022-07-17T05:23:36;7.40;;;1.30;;
17648;SDS011;8943;51.110;-4.158;2022-07-17T05:26:04;1.70;;;1.10;;
17648;SDS011;8943;51.110;-4.158;2022-07-17T05:28:32;4.97;;;1.37;;
17648;SDS011;8943;51.110;-4.158;2022-07-17T05:31:04;3.23;;;1.50;;
17648;SDS011;8943;51.110;-4.158;2022-07-17T05:33:33;2.47;;;1.30;;
17648;SDS011;8943;51.110;-4.158;2022-07-17T05:36:01;2.17;;;1.20;;
17648;SDS011;8943;51.110;-4.158;2022-07-17T05:38:29;3.43;;;1.40;;
17648;SDS011;8943;51.110;-4.158;2022-07-17T05:40:59;2.03;;;1.13;;
17648;SDS011;8943;51.110;-4.158;2022-07-17T05:43:27;5.07;;;1.50;;
17648;SDS011;8943;51.110;-4.158;2022-07-17T05:45:55;4.33;;;1.50;;
17648;SDS011;8943;51.110;-4.158;2022-07-17T05:48:24;4.43;;;1.30;;
17648;SDS011;8943;51.110;-4.158;2022-07-17T05:50:52;5.97;;;1.30;;
17648;SDS011;8943;51.110;-4.158;2022-07-17T05:53:21;1.70;;;1.40;;
17648;SDS011;8943;51.110;-4.158;2022-07-17T05:55:49;2.67;;;1.20;;
17648;SDS011;8943;51.110;-4.158;2022-07-17T05:58:19;1.60;;;1.10;;
17648;SDS011;8943;51.110;-4.158;2022-07-17T06:00:47;4.23;;;1.67;;
17648;SDS011;8943;51.110;-4.158;2022-07-17T06:03:16;1.70;;;1.20;;
17648;SDS011;8943;51.110;-4.158;2022-07-17T06:05:44;2.50;;;1.23;;
17648;SDS011;8943;51.110;-4.158;2022-07-17T06:08:13;1.87;;;1.30;;
17648;SDS011;8943;51.110;-4.158;2022-07-17T06:10:41;4.57;;;1.40;;
17648;SDS011;8943;51.110;-4.158;2022-07-17T06:13:09;1.50;;;1.23;;
17648;SDS011;8943;51.110;-4.158;2022-07-17T06:15:39;4.00;;;1.30;;
17648;SDS011;8943;51.110;-4.158;2022-07-17T06:18:08;3.20;;;1.20;;
17648;SDS011;8943;51.110;-4.158;2022-07-17T06:20:37;3.37;;;1.50;;
17648;SDS011;8943;51.110;-4.158;2022-07-17T06:23:05;2.27;;;1.20;;
17648;SDS011;8943;51.110;-4.158;2022-07-17T06:25:33;1.60;;;1.20;;
17648;SDS011;8943;51.110;-4.158;2022-07-17T06:28:01;3.67;;;1.70;;
17648;SDS011;8943;51.110;-4.158;2022-07-17T06:30:30;2.17;;;1.30;;
17648;SDS011;8943;51.110;-4.158;2022-07-17T06:32:59;1.97;;;1.40;;
17648;SDS011;8943;51.110;-4.158;2022-07-17T06:35:28;3.17;;;1.40;;
17648;SDS011;8943;51.110;-4.158;2022-07-17T06:37:57;2.53;;;1.40;;
17648;SDS011;8943;51.110;-4.158;2022-07-17T06:40:25;2.20;;;1.47;;
17648;SDS011;8943;51.110;-4.158;2022-07-17T06:42:53;2.97;;;1.70;;
17648;SDS011;8943;51.110;-4.158;2022-07-17T06:45:22;2.73;;;1.47;;
17648;SDS011;8943;51.110;-4.158;2022-07-17T06:47:50;3.93;;;1.57;;
17648;SDS011;8943;51.110;-4.158;2022-07-17T06:50:20;3.20;;;1.70;;
17648;SDS011;8943;51.110;-4.158;2022-07-17T06:52:48;3.87;;;1.67;;
17648;SDS011;8943;51.110;-4.158;2022-07-17T06:55:16;6.97;;;1.40;;
17648;SDS011;8943;51.110;-4.158;2022-07-17T06:57:45;6.40;;;2.20;;
17648;SDS011;8943;51.110;-4.158;2022-07-17T07:00:13;3.00;;;1.30;;
17648;SDS011;8943;51.110;-4.158;2022-07-17T07:02:44;4.73;;;1.30;;
17648;SDS011;8943;51.110;-4.158;2022-07-17T07:05:13;4.70;;;1.60;;
17648;SDS011;8943;51.110;-4.158;2022-07-17T07:07:43;3.33;;;1.30;;
17648;SDS011;8943;51.110;-4.158;2022-07-17T07:10:11;2.43;;;1.30;;
17648;SDS011;8943;51.110;-4.158;2022-07-17T07:12:40;3.53;;;1.37;;
17648;SDS011;8943;51.110;-4.158;2022-07-17T07:15:08;2.10;;;1.33;;
17648;SDS011;8943;51.110;-4.158;2022-07-17T07:17:38;2.67;;;1.50;;
17648;SDS011;8943;51.110;-4.158;2022-07-17T07:20:07;4.30;;;1.77;;
17648;SDS011;8943;51.110;-4.158;2022-07-17T07:22:36;1.93;;;1.30;;
17648;SDS011;8943;51.110;-4.158;2022-07-17T07:25:07;3.30;;;1.40;;
17648;SDS011;8943;51.110;-4.158;2022-07-17T07:27:36;2.43;;;1.50;;
17648;SDS011;8943;51.110;-4.158;2022-07-17T07:30:04;3.33;;;1.50;;
17648;SDS011;8943;51.110;-4.158;2022-07-17T07:32:37;1.97;;;1.30;;
17648;SDS011;8943;51.110;-4.158;2022-07-17T07:35:05;3.03;;;1.77;;
17648;SDS011;8943;51.110;-4.158;2022-07-17T07:37:34;3.90;;;1.43;;
17648;SDS011;8943;51.110;-4.158;2022-07-17T07:40:03;2.67;;;1.50;;
17648;SDS011;8943;51.110;-4.158;2022-07-17T07:42:34;1.67;;;1.20;;
17648;SDS011;8943;51.110;-4.158;2022-07-17T07:45:03;6.13;;;1.50;;
17648;SDS011;8943;51.110;-4.158;2022-07-17T07:47:33;1.97;;;1.07;;
17648;SDS011;8943;51.110;-4.158;2022-07-17T07:50:09;3.07;;;1.77;;
17648;SDS011;8943;51.110;-4.158;2022-07-17T07:52:38;4.20;;;1.80;;
17648;SDS011;8943;51.110;-4.158;2022-07-17T07:55:07;5.13;;;1.60;;
17648;SDS011;8943;51.110;-4.158;2022-07-17T07:57:44;5.27;;;1.60;;
17648;SDS011;8943;51.110;-4.158;2022-07-17T08:00:13;4.13;;;1.50;;
17648;SDS011;8943;51.110;-4.158;2022-07-17T08:02:42;3.90;;;1.50;;
17648;SDS011;8943;51.110;-4.158;2022-07-17T08:05:10;3.93;;;1.77;;
17648;SDS011;8943;51.110;-4.158;2022-07-17T08:07:38;5.23;;;1.50;;
17648;SDS011;8943;51.110;-4.158;2022-07-17T08:10:07;4.00;;;1.90;;
17648;SDS011;8943;51.110;-4.158;2022-07-17T08:12:35;2.30;;;1.40;;
17648;SDS011;8943;51.110;-4.158;2022-07-17T08:15:14;3.83;;;1.70;;
17648;SDS011;8943;51.110;-4.158;2022-07-17T08:17:44;3.63;;;1.60;;
17648;SDS011;8943;51.110;-4.158;2022-07-17T08:20:13;4.57;;;1.70;;
17648;SDS011;8943;51.110;-4.158;2022-07-17T08:22:41;4.07;;;1.50;;
17648;SDS011;8943;51.110;-4.158;2022-07-17T08:25:30;5.77;;;2.00;;
17648;SDS011;8943;51.110;-4.158;2022-07-17T08:28:00;6.13;;;2.00;;
17648;SDS011;8943;51.110;-4.158;2022-07-17T08:30:30;3.20;;;1.60;;
17648;SDS011;8943;51.110;-4.158;2022-07-17T08:33:02;3.50;;;1.57;;
17648;SDS011;8943;51.110;-4.158;2022-07-17T08:35:31;4.57;;;1.80;;
17648;SDS011;8943;51.110;-4.158;2022-07-17T08:37:59;4.90;;;2.20;;
17648;SDS011;8943;51.110;-4.158;2022-07-17T08:40:29;6.40;;;1.80;;
17648;SDS011;8943;51.110;-4.158;2022-07-17T08:43:00;3.43;;;1.67;;
17648;SDS011;8943;51.110;-4.158;2022-07-17T08:45:32;5.10;;;1.90;;
17648;SDS011;8943;51.110;-4.158;2022-07-17T08:48:01;4.77;;;2.07;;
17648;SDS011;8943;51.110;-4.158;2022-07-17T08:50:31;4.73;;;1.60;;
17648;SDS011;8943;51.110;-4.158;2022-07-17T08:53:01;6.77;;;2.07;;
17648;SDS011;8943;51.110;-4.158;2022-07-17T08:55:30;5.37;;;2.00;;
17648;SDS011;8943;51.110;-4.158;2022-07-17T08:57:59;2.60;;;2.00;;
17648;SDS011;8943;51.110;-4.158;2022-07-17T09:00:28;4.37;;;2.13;;
17648;SDS011;8943;51.110;-4.158;2022-07-17T09:02:59;4.90;;;2.03;;
17648;SDS011;8943;51.110;-4.158;2022-07-17T09:05:29;3.77;;;1.70;;
17648;SDS011;8943;51.110;-4.158;2022-07-17T09:07:59;4.13;;;2.03;;
17648;SDS011;8943;51.110;-4.158;2022-07-17T09:10:35;3.23;;;1.90;;
17648;SDS011;8943;51.110;-4.158;2022-07-17T09:13:14;5.03;;;2.33;;
17648;SDS011;8943;51.110;-4.158;2022-07-17T09:15:45;4.97;;;1.77;;
17648;SDS011;8943;51.110;-4.158;2022-07-17T09:18:15;3.95;;;1.80;;
17648;SDS011;8943;51.110;-4.158;2022-07-17T09:20:46;4.97;;;2.00;;
17648;SDS011;8943;51.110;-4.158;2022-07-17T09:23:16;4.93;;;1.90;;
17648;SDS011;8943;51.110;-4.158;2022-07-17T09:25:46;3.17;;;1.60;;
17648;SDS011;8943;51.110;-4.158;2022-07-17T09:28:15;3.28;;;1.80;;
17648;SDS011;8943;51.110;-4.158;2022-07-17T09:30:48;7.13;;;1.77;;
17648;SDS011;8943;51.110;-4.158;2022-07-17T09:33:20;5.25;;;1.90;;
17648;SDS011;8943;51.110;-4.158;2022-07-17T09:35:51;4.70;;;1.60;;
17648;SDS011;8943;51.110;-4.158;2022-07-17T09:38:28;8.77;;;3.75;;
17648;SDS011;8943;51.110;-4.158;2022-07-17T09:41:02;4.20;;;2.17;;
17648;SDS011;8943;51.110;-4.158;2022-07-17T09:43:39;4.95;;;2.15;;
17648;SDS011;8943;51.110;-4.158;2022-07-17T09:46:16;5.22;;;1.83;;
17648;SDS011;8943;51.110;-4.158;2022-07-17T09:48:49;5.60;;;2.35;;
17648;SDS011;8943;51.110;-4.158;2022-07-17T09:51:20;3.28;;;1.83;;
17648;SDS011;8943;51.110;-4.158;2022-07-17T09:53:51;3.47;;;1.58;;
17648;SDS011;8943;51.110;-4.158;2022-07-17T09:56:21;5.35;;;1.80;;
17648;SDS011;8943;51.110;-4.158;2022-07-17T09:58:52;2.72;;;1.85;;
17648;SDS011;8943;51.110;-4.158;2022-07-17T10:01:23;3.70;;;1.60;;
17648;SDS011;8943;51.110;-4.158;2022-07-17T10:03:53;5.68;;;2.00;;
17648;SDS011;8943;51.110;-4.158;2022-07-17T10:06:22;7.53;;;2.35;;
17648;SDS011;8943;51.110;-4.158;2022-07-17T10:08:52;2.95;;;1.70;;
17648;SDS011;8943;51.110;-4.158;2022-07-17T10:11:22;3.38;;;1.85;;
17648;SDS011;8943;51.110;-4.158;2022-07-17T10:13:52;2.03;;;1.60;;
17648;SDS011;8943;51.110;-4.158;2022-07-17T10:16:24;4.55;;;2.00;;
17648;SDS011;8943;51.110;-4.158;2022-07-17T10:18:56;2.72;;;1.70;;
17648;SDS011;8943;51.110;-4.158;2022-07-17T10:21:26;3.85;;;1.67;;
17648;SDS011;8943;51.110;-4.158;2022-07-17T10:24:08;4.75;;;1.98;;
17648;SDS011;8943;51.110;-4.158;2022-07-17T10:26:38;3.25;;;1.80;;
17648;SDS011;8943;51.110;-4.158;2022-07-17T10:29:25;2.78;;;1.77;;
17648;SDS011;8943;51.110;-4.158;2022-07-17T10:31:57;6.25;;;2.30;;
17648;SDS011;8943;51.110;-4.158;2022-07-17T10:34:38;3.42;;;2.33;;
17648;SDS011;8943;51.110;-4.158;2022-07-17T10:37:19;3.30;;;1.63;;
17648;SDS011;8943;51.110;-4.158;2022-07-17T10:39:52;5.95;;;1.63;;
17648;SDS011;8943;51.110;-4.158;2022-07-17T10:42:44;4.30;;;1.77;;
17648;SDS011;8943;51.110;-4.158;2022-07-17T10:45:24;5.90;;;1.73;;
17648;SDS011;8943;51.110;-4.158;2022-07-17T10:47:56;7.28;;;1.90;;
17648;SDS011;8943;51.110;-4.158;2022-07-17T10:50:28;3.90;;;2.25;;
17648;SDS011;8943;51.110;-4.158;2022-07-17T10:53:09;3.15;;;1.90;;
17648;SDS011;8943;51.110;-4.158;2022-07-17T10:55:47;4.13;;;1.90;;
17648;SDS011;8943;51.110;-4.158;2022-07-17T10:58:18;2.45;;;1.50;;
17648;SDS011;8943;51.110;-4.158;2022-07-17T11:01:01;8.07;;;2.20;;
17648;SDS011;8943;51.110;-4.158;2022-07-17T11:03:33;3.38;;;1.88;;
17648;SDS011;8943;51.110;-4.158;2022-07-17T11:06:22;3.08;;;1.75;;
17648;SDS011;8943;51.110;-4.158;2022-07-17T11:08:54;4.25;;;1.58;;
17648;SDS011;8943;51.110;-4.158;2022-07-17T11:11:34;5.40;;;1.90;;
17648;SDS011;8943;51.110;-4.158;2022-07-17T11:14:08;4.55;;;1.83;;
17648;SDS011;8943;51.110;-4.158;2022-07-17T11:16:39;2.97;;;1.60;;
17648;SDS011;8943;51.110;-4.158;2022-07-17T11:19:12;3.95;;;1.70;;
17648;SDS011;8943;51.110;-4.158;2022-07-17T11:21:49;2.30;;;1.60;;
17648;SDS011;8943;51.110;-4.158;2022-07-17T11:24:19;3.25;;;1.80;;
17648;SDS011;8943;51.110;-4.158;2022-07-17T11:26:49;3.17;;;2.00;;
17648;SDS011;8943;51.110;-4.158;2022-07-17T11:29:18;5.20;;;1.40;;
17648;SDS011;8943;51.110;-4.158;2022-07-17T11:31:47;4.13;;;1.90;;
17648;SDS011;8943;51.110;-4.158;2022-07-17T11:34:24;3.13;;;1.67;;
17648;SDS011;8943;51.110;-4.158;2022-07-17T11:36:59;3.30;;;1.63;;
17648;SDS011;8943;51.110;-4.158;2022-07-17T11:39:36;2.85;;;1.48;;
17648;SDS011;8943;51.110;-4.158;2022-07-17T11:42:07;3.60;;;1.77;;
17648;SDS011;8943;51.110;-4.158;2022-07-17T11:44:37;4.03;;;1.50;;
17648;SDS011;8943;51.110;-4.158;2022-07-17T11:47:05;3.83;;;1.58;;
17648;SDS011;8943;51.110;-4.158;2022-07-17T11:49:35;2.30;;;1.60;;
17648;SDS011;8943;51.110;-4.158;2022-07-17T11:52:08;2.35;;;1.27;;
17648;SDS011;8943;51.110;-4.158;2022-07-17T11:54:44;4.82;;;1.67;;
17648;SDS011;8943;51.110;-4.158;2022-07-17T11:57:13;6.03;;;1.45;;
17648;SDS011;8943;51.110;-4.158;2022-07-17T11:59:41;1.65;;;1.30;;
17648;SDS011;8943;51.110;-4.158;2022-07-17T12:02:11;2.45;;;1.58;;
17648;SDS011;8943;51.110;-4.158;2022-07-17T12:04:50;4.75;;;1.75;;
17648;SDS011;8943;51.110;-4.158;2022-07-17T12:07:21;3.33;;;1.70;;
17648;SDS011;8943;51.110;-4.158;2022-07-17T12:09:51;4.03;;;1.50;;
17648;SDS011;8943;51.110;-4.158;2022-07-17T12:12:21;4.88;;;1.95;;
17648;SDS011;8943;51.110;-4.158;2022-07-17T12:14:50;3.33;;;1.75;;
17648;SDS011;8943;51.110;-4.158;2022-07-17T12:17:19;3.65;;;1.88;;
17648;SDS011;8943;51.110;-4.158;2022-07-17T12:19:48;7.28;;;1.73;;
17648;SDS011;8943;51.110;-4.158;2022-07-17T12:22:20;2.55;;;1.50;;
17648;SDS011;8943;51.110;-4.158;2022-07-17T12:24:49;4.90;;;1.60;;
17648;SDS011;8943;51.110;-4.158;2022-07-17T12:27:17;2.42;;;1.50;;
17648;SDS011;8943;51.110;-4.158;2022-07-17T12:29:46;4.57;;;1.65;;
17648;SDS011;8943;51.110;-4.158;2022-07-17T12:32:14;2.38;;;1.50;;
17648;SDS011;8943;51.110;-4.158;2022-07-17T12:34:44;2.63;;;1.70;;
17648;SDS011;8943;51.110;-4.158;2022-07-17T12:37:14;2.42;;;1.60;;
17648;SDS011;8943;51.110;-4.158;2022-07-17T12:39:45;1.58;;;1.40;;
17648;SDS011;8943;51.110;-4.158;2022-07-17T12:42:14;5.78;;;1.50;;
17648;SDS011;8943;51.110;-4.158;2022-07-17T12:44:43;2.85;;;1.50;;
17648;SDS011;8943;51.110;-4.158;2022-07-17T12:47:11;3.33;;;1.38;;
17648;SDS011;8943;51.110;-4.158;2022-07-17T12:49:40;1.52;;;1.30;;
17648;SDS011;8943;51.110;-4.158;2022-07-17T12:52:08;2.75;;;1.65;;
17648;SDS011;8943;51.110;-4.158;2022-07-17T12:54:36;3.58;;;1.30;;
17648;SDS011;8943;51.110;-4.158;2022-07-17T12:57:06;3.72;;;1.30;;
17648;SDS011;8943;51.110;-4.158;2022-07-17T12:59:34;4.05;;;1.80;;
17648;SDS011;8943;51.110;-4.158;2022-07-17T13:02:03;1.80;;;1.40;;
17648;SDS011;8943;51.110;-4.158;2022-07-17T13:04:32;2.33;;;1.55;;
17648;SDS011;8943;51.110;-4.158;2022-07-17T13:07:02;5.97;;;1.60;;
17648;SDS011;8943;51.110;-4.158;2022-07-17T13:09:32;2.85;;;1.58;;
17648;SDS011;8943;51.110;-4.158;2022-07-17T13:12:03;3.50;;;1.50;;
17648;SDS011;8943;51.110;-4.158;2022-07-17T13:14:32;3.35;;;1.55;;
17648;SDS011;8943;51.110;-4.158;2022-07-17T13:17:01;2.53;;;1.70;;
17648;SDS011;8943;51.110;-4.158;2022-07-17T13:19:29;2.42;;;1.63;;
17648;SDS011;8943;51.110;-4.158;2022-07-17T13:21:57;3.00;;;1.35;;
17648;SDS011;8943;51.110;-4.158;2022-07-17T13:24:26;2.50;;;1.60;;
17648;SDS011;8943;51.110;-4.158;2022-07-17T13:26:54;4.13;;;1.30;;
17648;SDS011;8943;51.110;-4.158;2022-07-17T13:29:23;4.88;;;1.42;;
17648;SDS011;8943;51.110;-4.158;2022-07-17T13:31:54;3.03;;;1.38;;
17648;SDS011;8943;51.110;-4.158;2022-07-17T13:34:23;3.60;;;1.35;;
17648;SDS011;8943;51.110;-4.158;2022-07-17T13:36:51;1.42;;;1.10;;
17648;SDS011;8943;51.110;-4.158;2022-07-17T13:39:20;2.25;;;1.20;;
17648;SDS011;8943;51.110;-4.158;2022-07-17T13:41:48;1.85;;;1.30;;
17648;SDS011;8943;51.110;-4.158;2022-07-17T13:44:18;1.23;;;1.10;;
17648;SDS011;8943;51.110;-4.158;2022-07-17T13:46:46;4.20;;;1.50;;
17648;SDS011;8943;51.110;-4.158;2022-07-17T13:49:16;2.75;;;1.17;;
17648;SDS011;8943;51.110;-4.158;2022-07-17T13:51:45;2.03;;;1.20;;
17648;SDS011;8943;51.110;-4.158;2022-07-17T13:54:13;2.88;;;1.23;;
17648;SDS011;8943;51.110;-4.158;2022-07-17T13:56:42;3.70;;;1.45;;
17648;SDS011;8943;51.110;-4.158;2022-07-17T13:59:10;2.22;;;1.60;;
17648;SDS011;8943;51.110;-4.158;2022-07-17T14:01:38;2.03;;;1.13;;
17648;SDS011;8943;51.110;-4.158;2022-07-17T14:04:07;3.83;;;1.38;;
17648;SDS011;8943;51.110;-4.158;2022-07-17T14:06:37;3.45;;;1.20;;
17648;SDS011;8943;51.110;-4.158;2022-07-17T14:09:05;4.40;;;1.42;;
17648;SDS011;8943;51.110;-4.158;2022-07-17T14:11:35;2.42;;;1.13;;
17648;SDS011;8943;51.110;-4.158;2022-07-17T14:14:03;3.63;;;1.35;;
17648;SDS011;8943;51.110;-4.158;2022-07-17T14:16:32;1.40;;;0.90;;
17648;SDS011;8943;51.110;-4.158;2022-07-17T14:19:00;3.47;;;1.40;;
17648;SDS011;8943;51.110;-4.158;2022-07-17T14:21:31;1.85;;;1.20;;
17648;SDS011;8943;51.110;-4.158;2022-07-17T14:24:02;2.08;;;1.45;;
17648;SDS011;8943;51.110;-4.158;2022-07-17T14:26:32;2.05;;;1.17;;
17648;SDS011;8943;51.110;-4.158;2022-07-17T14:29:00;1.40;;;1.05;;
17648;SDS011;8943;51.110;-4.158;2022-07-17T14:31:29;3.10;;;1.33;;
17648;SDS011;8943;51.110;-4.158;2022-07-17T14:33:58;4.53;;;1.20;;
17648;SDS011;8943;51.110;-4.158;2022-07-17T14:36:27;1.35;;;0.80;;
17648;SDS011;8943;51.110;-4.158;2022-07-17T14:38:55;2.60;;;1.10;;
17648;SDS011;8943;51.110;-4.158;2022-07-17T14:41:26;2.58;;;1.10;;
17648;SDS011;8943;51.110;-4.158;2022-07-17T14:43:54;3.28;;;1.10;;
17648;SDS011;8943;51.110;-4.158;2022-07-17T14:46:24;1.45;;;1.10;;
17648;SDS011;8943;51.110;-4.158;2022-07-17T14:48:52;1.65;;;1.20;;
17648;SDS011;8943;51.110;-4.158;2022-07-17T14:51:21;3.15;;;1.30;;
17648;SDS011;8943;51.110;-4.158;2022-07-17T14:53:50;2.75;;;1.10;;
17648;SDS011;8943;51.110;-4.158;2022-07-17T14:56:18;2.35;;;1.05;;
17648;SDS011;8943;51.110;-4.158;2022-07-17T14:58:48;2.35;;;1.10;;
17648;SDS011;8943;51.110;-4.158;2022-07-17T15:01:16;1.63;;;1.20;;
17648;SDS011;8943;51.110;-4.158;2022-07-17T15:03:44;2.67;;;0.90;;